createdAt,value
2023-04-05T00:01:07.823Z,11.00
2023-04-05T00:03:57.615Z,10.32
2023-04-05T00:06:43.975Z,9.70
2023-04-05T00:09:29.148Z,9.57
2023-04-05T00:12:14.877Z,9.30
2023-04-05T00:15:03.343Z,9.07
2023-04-05T00:17:48.821Z,8.05
2023-04-05T00:20:37.451Z,9.35
2023-04-05T00:23:23.045Z,8.15
2023-04-05T00:26:08.603Z,8.90
2023-04-05T00:28:54.830Z,8.70
2023-04-05T00:31:40.547Z,8.68
2023-04-05T00:34:29.176Z,8.70
2023-04-05T00:37:14.469Z,8.15
2023-04-05T00:40:00.260Z,8.45
2023-04-05T00:42:46.017Z,8.95
2023-04-05T00:45:34.967Z,8.57
2023-04-05T00:48:20.911Z,7.70
2023-04-05T00:51:11.401Z,8.45
2023-04-05T00:53:57.279Z,8.85
2023-04-05T00:56:43.304Z,8.25
2023-04-05T00:59:32.222Z,8.55
2023-04-05T01:02:53.270Z,9.15
2023-04-05T01:05:49.532Z,8.30
2023-04-05T01:08:49.270Z,8.98
2023-04-05T01:11:38.242Z,8.70
2023-04-05T01:14:24.422Z,9.05
2023-04-05T01:17:12.363Z,8.95
2023-04-05T01:20:11.348Z,8.80
2023-04-05T01:23:37.676Z,9.38
2023-04-05T01:27:02.500Z,6.93
2023-04-05T01:30:09.903Z,9.55
2023-04-05T01:33:12.503Z,9.35
2023-04-05T01:36:27.257Z,10.32
2023-04-05T01:39:16.649Z,10.00
2023-04-05T01:42:03.687Z,10.35
2023-04-05T01:44:48.949Z,10.30
2023-04-05T01:47:34.570Z,10.05
2023-04-05T01:50:20.992Z,10.23
2023-04-05T01:53:08.546Z,10.05
2023-04-05T01:55:54.424Z,10.32
2023-04-05T01:58:44.947Z,11.18
2023-04-05T02:01:31.865Z,10.27
2023-04-05T02:04:17.162Z,10.13
2023-04-05T02:07:03.738Z,10.55
2023-04-05T02:09:49.334Z,11.23
2023-04-05T02:12:34.904Z,10.90
2023-04-05T02:15:20.820Z,11.23
2023-04-05T02:18:07.886Z,12.10
2023-04-05T02:20:53.658Z,12.02
2023-04-05T02:23:39.148Z,11.90
2023-04-05T02:26:24.530Z,12.40
2023-04-05T02:29:12.437Z,11.90
2023-04-05T02:31:58.152Z,11.32
2023-04-05T02:34:43.751Z,10.68
2023-04-05T02:37:29.141Z,12.77
2023-04-05T02:40:15.537Z,11.48
2023-04-05T02:43:00.984Z,11.48
2023-04-05T02:45:47.149Z,11.05
2023-04-05T02:48:33.315Z,11.43
2023-04-05T02:51:19.835Z,12.32
2023-04-05T02:54:05.880Z,11.70
2023-04-05T02:56:54.726Z,12.35
2023-04-05T02:59:44.394Z,11.38
2023-04-05T03:02:29.997Z,11.10
2023-04-05T03:05:18.666Z,11.63
2023-04-05T03:08:08.527Z,12.38
2023-04-05T03:10:54.626Z,11.93
2023-04-05T03:13:40.100Z,11.38
2023-04-05T03:16:40.905Z,11.57
2023-04-05T03:19:35.620Z,10.90
2023-04-05T03:22:32.800Z,11.30
2023-04-05T03:25:19.890Z,11.23
2023-04-05T03:28:09.055Z,12.27
2023-04-05T03:30:58.525Z,12.63
2023-04-05T03:33:43.964Z,12.20
2023-04-05T03:36:50.250Z,12.35
2023-04-05T03:39:51.014Z,12.05
2023-04-05T03:42:40.627Z,12.02
2023-04-05T03:45:27.080Z,12.52
2023-04-05T03:48:12.538Z,11.73
2023-04-05T03:50:58.919Z,12.30
2023-04-05T03:53:44.783Z,12.43
2023-04-05T03:56:30.486Z,13.85
2023-04-05T03:59:19.164Z,13.23
2023-04-05T04:02:04.735Z,13.35
2023-04-05T04:04:51.488Z,13.52
2023-04-05T04:07:36.816Z,13.65
2023-04-05T04:10:22.693Z,13.50
2023-04-05T04:13:11.836Z,13.07
2023-04-05T04:15:57.295Z,14.35
2023-04-05T04:19:17.106Z,13.95
2023-04-05T04:22:38.675Z,13.80
2023-04-05T04:25:50.805Z,13.52
2023-04-05T04:28:55.675Z,14.68
2023-04-05T04:32:01.377Z,14.13
2023-04-05T04:35:05.139Z,15.07
2023-04-05T04:38:05.119Z,14.93
2023-04-05T04:41:06.723Z,14.87
2023-04-05T04:44:28.190Z,14.38
2023-04-05T04:47:48.218Z,15.15
2023-04-05T04:50:37.730Z,14.73
2023-04-05T04:53:24.320Z,16.17
2023-04-05T04:56:17.168Z,16.60
2023-04-05T04:59:02.494Z,16.17
2023-04-05T05:01:47.777Z,16.33
2023-04-05T05:04:34.488Z,16.60
2023-04-05T05:07:22.444Z,15.75
2023-04-05T05:10:08.740Z,16.23
2023-04-05T05:12:54.373Z,17.45
2023-04-05T05:15:44.020Z,17.38
2023-04-05T05:18:32.184Z,16.70
2023-04-05T05:21:17.672Z,16.27
2023-04-05T05:24:10.139Z,16.13
2023-04-05T05:26:55.706Z,17.48
2023-04-05T05:29:45.176Z,17.33
2023-04-05T05:32:31.774Z,17.48
2023-04-05T05:35:17.310Z,17.70
2023-04-05T05:38:02.785Z,17.20
2023-04-05T05:40:48.447Z,16.38
2023-04-05T05:43:36.523Z,17.08
2023-04-05T05:46:22.227Z,16.13
2023-04-05T05:49:07.799Z,15.48
2023-04-05T05:51:53.558Z,16.23
2023-04-05T05:54:38.786Z,15.55
2023-04-05T05:57:24.508Z,15.38
2023-04-05T06:00:10.667Z,15.80
2023-04-05T06:02:59.628Z,14.63
2023-04-05T06:05:58.630Z,14.93
2023-04-05T06:08:44.317Z,14.05
2023-04-05T06:11:29.785Z,14.23
2023-04-05T06:14:14.972Z,14.40
2023-04-05T06:17:04.608Z,13.00
2023-04-05T06:19:50.802Z,11.45
2023-04-05T06:22:38.086Z,11.73
2023-04-05T06:25:23.710Z,11.75
2023-04-05T06:28:10.341Z,12.00
2023-04-05T06:30:58.570Z,11.57
2023-04-05T06:33:44.187Z,12.18
2023-04-05T06:36:34.194Z,11.68
2023-04-05T06:39:19.969Z,12.23
2023-04-05T06:42:05.544Z,11.65
2023-04-05T06:44:58.479Z,11.88
2023-04-05T06:47:43.801Z,11.85
2023-04-05T06:50:29.377Z,10.80
2023-04-05T06:53:20.451Z,10.88
2023-04-05T06:56:06.568Z,10.88
2023-04-05T06:58:52.277Z,11.50
2023-04-05T07:01:38.062Z,11.15
2023-04-05T07:04:23.533Z,11.95
2023-04-05T07:07:09.195Z,11.07
2023-04-05T07:09:57.576Z,11.77
2023-04-05T07:12:43.302Z,10.25
2023-04-05T07:15:28.749Z,10.65
2023-04-05T07:18:15.876Z,10.13
2023-04-05T07:21:01.908Z,10.40
2023-04-05T07:23:47.671Z,10.98
2023-04-05T07:26:37.270Z,10.73
2023-04-05T07:29:22.892Z,10.25
2023-04-05T07:32:08.903Z,10.00
2023-04-05T07:34:54.449Z,9.90
2023-04-05T07:37:40.649Z,10.25
2023-04-05T07:40:25.943Z,9.10
2023-04-05T07:43:11.179Z,9.60
2023-04-05T07:46:04.239Z,8.88
2023-04-05T07:48:49.821Z,9.13
2023-04-05T07:51:37.395Z,8.63
2023-04-05T07:54:23.799Z,8.48
2023-04-05T07:57:21.498Z,10.20
2023-04-05T08:00:12.483Z,8.55
2023-04-05T08:03:02.572Z,9.45
2023-04-05T08:05:48.421Z,8.75
2023-04-05T08:08:35.235Z,8.45
2023-04-05T08:11:21.634Z,8.38
2023-04-05T08:14:07.376Z,7.75
2023-04-05T08:16:52.775Z,8.65
2023-04-05T08:19:38.030Z,8.80
2023-04-05T08:22:23.448Z,7.55
2023-04-05T08:25:15.538Z,7.97
2023-04-05T08:28:01.146Z,6.97
2023-04-05T08:30:46.632Z,7.30
2023-04-05T08:33:31.797Z,7.20
2023-04-05T08:36:17.562Z,7.47
2023-04-05T08:39:06.182Z,7.65
2023-04-05T08:42:08.106Z,7.22
2023-04-05T08:44:57.731Z,7.32
2023-04-05T08:47:43.640Z,7.72
2023-04-05T08:50:28.933Z,7.05
2023-04-05T08:53:16.582Z,7.57
2023-04-05T08:56:05.322Z,5.53
2023-04-05T08:59:11.729Z,6.43
2023-04-05T09:04:46.540Z,6.47
2023-04-05T09:07:32.045Z,5.95
2023-04-05T09:10:20.463Z,5.10
2023-04-05T09:13:06.809Z,5.63
2023-04-05T09:15:52.768Z,6.18
2023-04-05T09:18:39.266Z,5.90
2023-04-05T09:21:24.852Z,6.22
2023-04-05T09:24:10.687Z,5.75
2023-04-05T09:27:13.394Z,5.32
2023-04-05T09:29:59.170Z,6.15
2023-04-05T09:32:47.264Z,5.90
2023-04-05T09:35:33.389Z,5.78
2023-04-05T09:38:18.514Z,6.35
2023-04-05T09:41:13.161Z,5.72
2023-04-05T09:43:58.734Z,5.97
2023-04-05T09:46:47.581Z,6.18
2023-04-05T09:49:34.130Z,5.68
2023-04-05T09:52:33.703Z,6.05
2023-04-05T09:55:28.268Z,6.22
2023-04-05T09:58:18.945Z,6.38
2023-04-05T10:01:16.224Z,6.93
2023-04-05T10:04:05.695Z,7.45
2023-04-05T10:06:52.336Z,6.60
2023-04-05T10:09:39.162Z,6.45
2023-04-05T10:12:27.029Z,6.03
2023-04-05T10:15:15.753Z,6.47
2023-04-05T10:18:05.969Z,7.13
2023-04-05T10:20:52.962Z,6.32
2023-04-05T10:23:43.716Z,6.38
2023-04-05T10:26:44.632Z,6.38
2023-04-05T10:29:38.673Z,6.80
2023-04-05T10:32:35.011Z,5.95
2023-04-05T10:35:29.334Z,6.57
2023-04-05T10:38:29.859Z,6.07
2023-04-05T10:41:15.630Z,6.75
2023-04-05T10:44:11.847Z,6.65
2023-04-05T10:47:05.510Z,7.10
2023-04-05T10:49:56.376Z,6.40
2023-04-05T10:52:42.172Z,6.50
2023-04-05T10:55:31.034Z,7.10
2023-04-05T10:58:17.943Z,7.10
2023-04-05T11:01:04.880Z,6.88
2023-04-05T11:03:54.597Z,6.80
2023-04-05T11:06:40.912Z,7.53
2023-04-05T11:09:27.215Z,7.47
2023-04-05T11:12:12.864Z,7.50
2023-04-05T11:15:32.193Z,7.18
2023-04-05T11:18:17.700Z,6.65
2023-04-05T11:21:07.817Z,6.95
2023-04-05T11:24:01.788Z,6.63
2023-04-05T11:26:47.904Z,6.22
2023-04-05T11:29:48.916Z,7.60
2023-04-05T11:32:45.455Z,6.80
2023-04-05T11:35:39.191Z,6.47
2023-04-05T11:38:24.738Z,6.55
2023-04-05T11:41:17.973Z,6.07
2023-04-05T11:44:05.794Z,6.20
2023-04-05T11:46:52.308Z,6.90
2023-04-05T11:49:39.159Z,6.57
2023-04-05T11:52:24.624Z,6.50
2023-04-05T11:55:11.915Z,6.65
2023-04-05T11:57:57.305Z,6.25
2023-04-05T12:00:47.141Z,6.22
2023-04-05T12:03:35.201Z,5.82
2023-04-05T12:06:23.545Z,6.53
2023-04-05T12:09:09.377Z,6.40
2023-04-05T12:11:55.336Z,6.30
2023-04-05T12:14:40.540Z,5.50
2023-04-05T12:17:53.957Z,6.55
2023-04-05T12:20:40.562Z,6.85
2023-04-05T12:23:26.289Z,6.90
2023-04-05T12:26:11.792Z,6.78
2023-04-05T12:28:59.086Z,6.68
2023-04-05T12:31:46.901Z,7.20
2023-04-05T12:34:32.398Z,6.32
2023-04-05T12:37:19.778Z,5.78
2023-04-05T12:40:06.272Z,6.95
2023-04-05T12:42:52.106Z,7.18
2023-04-05T12:45:41.949Z,6.70
2023-04-05T12:48:27.608Z,6.50
2023-04-05T12:51:17.232Z,5.85
2023-04-05T12:54:04.230Z,6.60
2023-04-05T12:56:57.107Z,6.88
2023-04-05T12:59:42.326Z,6.03
2023-04-05T13:02:27.965Z,6.85
2023-04-05T13:05:13.367Z,7.10
2023-04-05T13:07:59.724Z,6.32
2023-04-05T13:10:46.742Z,7.28
2023-04-05T13:13:34.243Z,7.03
2023-04-05T13:16:28.608Z,7.82
2023-04-05T13:19:14.124Z,7.35
2023-04-05T13:21:59.571Z,7.25
2023-04-05T13:24:44.759Z,7.82
2023-04-05T13:27:30.762Z,8.00
2023-04-05T13:30:16.866Z,7.45
2023-04-05T13:33:05.119Z,7.80
2023-04-05T13:35:50.870Z,9.02
2023-04-05T13:38:37.632Z,8.07
2023-04-05T13:41:23.066Z,7.70
2023-04-05T13:44:08.622Z,7.55
2023-04-05T13:46:53.991Z,8.55
2023-04-05T13:49:39.554Z,8.98
2023-04-05T13:52:26.106Z,8.23
2023-04-05T13:55:11.450Z,7.88
2023-04-05T13:57:57.176Z,8.15
2023-04-05T14:00:43.207Z,8.25
2023-04-05T14:03:29.348Z,8.00
2023-04-05T14:06:14.765Z,7.45
2023-04-05T14:09:00.476Z,8.55
2023-04-05T14:11:46.308Z,9.00
2023-04-05T14:14:32.164Z,8.00
2023-04-05T14:17:18.053Z,8.68
2023-04-05T14:20:03.425Z,8.80
2023-04-05T14:22:48.912Z,9.38
2023-04-05T14:25:34.989Z,8.25
2023-04-05T14:28:20.497Z,8.57
2023-04-05T14:31:05.688Z,9.73
2023-04-05T14:33:51.924Z,8.88
2023-04-05T14:36:37.348Z,9.95
2023-04-05T14:39:22.882Z,9.82
2023-04-05T14:42:08.458Z,9.88
2023-04-05T14:44:56.834Z,9.70
2023-04-05T14:47:42.255Z,9.23
2023-04-05T14:50:32.473Z,10.00
2023-04-05T14:53:17.712Z,9.50
2023-04-05T14:56:03.730Z,9.23
2023-04-05T14:58:49.415Z,9.18
2023-04-05T15:01:34.878Z,8.98
2023-04-05T15:04:20.642Z,8.90
2023-04-05T15:07:06.035Z,8.93
2023-04-05T15:09:51.617Z,9.75
2023-04-05T15:12:37.184Z,9.65
2023-04-05T15:15:22.880Z,9.48
2023-04-05T15:18:08.287Z,10.75
2023-04-05T15:20:55.222Z,10.23
2023-04-05T15:23:43.004Z,11.38
2023-04-05T15:26:30.957Z,10.30
2023-04-05T15:29:16.827Z,9.88
2023-04-05T15:32:03.026Z,9.32
2023-04-05T15:34:51.198Z,10.15
2023-04-05T15:37:36.728Z,10.13
2023-04-05T15:40:22.994Z,10.60
2023-04-05T15:43:09.359Z,10.18
2023-04-05T15:45:54.775Z,10.40
2023-04-05T15:48:40.311Z,12.02
2023-04-05T15:51:26.831Z,10.82
2023-04-05T15:54:18.381Z,11.77
2023-04-05T15:57:04.277Z,12.48
2023-04-05T15:59:59.251Z,12.05
2023-04-05T16:02:44.547Z,11.65
2023-04-05T16:05:30.676Z,11.18
2023-04-05T16:08:16.430Z,11.43
2023-04-05T16:11:02.204Z,10.77
2023-04-05T16:13:48.551Z,12.32
2023-04-05T16:16:42.058Z,11.23
2023-04-05T16:19:39.369Z,12.10
2023-04-05T16:22:25.890Z,11.75
2023-04-05T16:25:11.485Z,11.70
2023-04-05T16:27:57.029Z,11.20
2023-04-05T16:30:45.693Z,12.25
2023-04-05T16:33:33.317Z,12.23
2023-04-05T16:36:18.578Z,11.90
2023-04-05T16:39:04.478Z,11.52
2023-04-05T16:41:50.517Z,11.88
2023-04-05T16:44:36.063Z,12.13
2023-04-05T16:47:21.539Z,12.05
2023-04-05T16:50:07.876Z,12.50
2023-04-05T16:52:58.871Z,12.48
2023-04-05T16:55:44.511Z,12.63
2023-04-05T16:58:32.694Z,12.77
2023-04-05T17:01:20.972Z,13.32
2023-04-05T17:04:06.296Z,13.43
2023-04-05T17:06:51.871Z,13.73
2023-04-05T17:09:37.140Z,12.50
2023-04-05T17:12:23.556Z,13.07
2023-04-05T17:15:12.230Z,19.60
2023-04-05T17:18:01.055Z,20.08
2023-04-05T17:20:46.573Z,20.33
2023-04-05T17:23:32.068Z,20.88
2023-04-05T17:26:17.695Z,21.25
2023-04-05T17:29:03.715Z,21.95
2023-04-05T17:31:49.231Z,21.15
2023-04-05T17:34:34.628Z,21.42
2023-04-05T17:37:20.408Z,20.73
2023-04-05T17:40:06.700Z,21.15
2023-04-05T17:42:52.345Z,21.40
2023-04-05T17:45:37.923Z,20.27
2023-04-05T17:48:23.283Z,21.88
2023-04-05T17:51:08.837Z,22.45
2023-04-05T17:53:54.264Z,22.80
2023-04-05T17:56:39.922Z,22.40
2023-04-05T17:59:25.463Z,21.88
2023-04-05T18:02:11.660Z,22.35
2023-04-05T18:04:57.373Z,24.05
2023-04-05T18:07:43.187Z,21.83
2023-04-05T18:10:34.524Z,21.52
2023-04-05T18:13:19.857Z,22.75
2023-04-05T18:16:05.608Z,22.38
2023-04-05T18:18:53.470Z,22.42
2023-04-05T18:21:38.885Z,23.33
2023-04-05T18:24:24.465Z,24.13
2023-04-05T18:27:10.851Z,24.05
2023-04-05T18:29:56.012Z,22.38
2023-04-05T18:32:41.564Z,23.65
2023-04-05T18:35:27.218Z,23.30
2023-04-05T18:38:12.414Z,22.75
2023-04-05T18:41:04.803Z,24.15
2023-04-05T18:43:57.261Z,22.40
2023-04-05T18:46:44.157Z,23.45
2023-04-05T18:49:30.229Z,24.15
2023-04-05T18:52:22.666Z,22.80
2023-04-05T18:55:08.578Z,22.77
2023-04-05T18:57:57.227Z,24.65
2023-04-05T19:00:45.647Z,23.40
2023-04-05T19:03:31.279Z,24.83
2023-04-05T19:06:17.466Z,24.50
2023-04-05T19:09:02.745Z,24.45
2023-04-05T19:11:48.306Z,26.15
2023-04-05T19:14:34.991Z,24.27
2023-04-05T19:17:20.658Z,25.00
2023-04-05T19:20:06.775Z,24.48
2023-04-05T19:22:52.640Z,25.38
2023-04-05T19:25:38.126Z,25.80
2023-04-05T19:28:27.198Z,25.73
2023-04-05T19:31:12.889Z,25.35
2023-04-05T19:33:59.375Z,24.85
2023-04-05T19:36:44.813Z,24.95
2023-04-05T19:39:30.361Z,25.13
2023-04-05T19:42:21.596Z,23.23
2023-04-05T19:45:12.444Z,25.98
2023-04-05T19:47:59.992Z,23.42
2023-04-05T19:51:00.110Z,25.63
2023-04-05T19:53:48.390Z,23.77
2023-04-05T19:56:39.918Z,24.55
2023-04-05T19:59:29.919Z,25.80
2023-04-05T20:02:37.087Z,28.83
2023-04-05T20:05:47.669Z,26.77
2023-04-05T20:08:36.081Z,25.00
2023-04-05T20:11:22.573Z,26.70
2023-04-05T20:14:09.264Z,26.52
2023-04-05T20:16:56.045Z,25.13
2023-04-05T20:19:56.738Z,28.20
2023-04-05T20:22:41.933Z,27.42
2023-04-05T20:25:39.298Z,27.40
2023-04-05T20:28:43.233Z,25.98
2023-04-05T20:31:33.840Z,26.70
2023-04-05T20:34:33.725Z,24.92
2023-04-05T20:37:19.318Z,23.92
2023-04-05T20:40:05.500Z,24.83
2023-04-05T20:42:52.170Z,23.92
2023-04-05T20:45:37.740Z,24.90
2023-04-05T20:48:23.377Z,27.10
2023-04-05T20:51:10.421Z,26.42
2023-04-05T20:53:56.096Z,27.30
2023-04-05T20:56:42.384Z,26.10
2023-04-05T20:59:27.955Z,26.08
2023-04-05T21:02:13.273Z,26.80
2023-04-05T21:05:03.012Z,29.95
2023-04-05T21:07:48.342Z,30.25
2023-04-05T21:10:34.576Z,30.13
2023-04-05T21:13:21.204Z,28.42
2023-04-05T21:16:07.466Z,28.83
2023-04-05T21:18:52.919Z,29.52
2023-04-05T21:21:38.299Z,29.40
2023-04-05T21:24:23.775Z,27.95
2023-04-05T21:27:09.181Z,28.92
2023-04-05T21:29:54.801Z,27.95
2023-04-05T21:32:40.340Z,29.10
2023-04-05T21:35:25.860Z,29.92
2023-04-05T21:38:12.456Z,28.20
2023-04-05T21:40:59.833Z,29.65
2023-04-05T21:43:45.449Z,29.35
2023-04-05T21:46:30.593Z,30.35
2023-04-05T21:49:16.109Z,28.88
2023-04-05T21:52:01.627Z,30.05
2023-04-05T21:54:47.195Z,28.77
2023-04-05T21:57:36.038Z,31.15
2023-04-05T22:00:21.645Z,28.88
2023-04-05T22:03:07.274Z,30.83
2023-04-05T22:05:52.646Z,29.15
2023-04-05T22:08:38.183Z,31.48
2023-04-05T22:11:24.913Z,31.88
2023-04-05T22:14:10.313Z,30.95
2023-04-05T22:16:56.588Z,31.65
2023-04-05T22:19:44.163Z,32.03
2023-04-05T22:22:32.670Z,31.50
2023-04-05T22:25:18.126Z,30.38
2023-04-05T22:28:03.811Z,31.55
2023-04-05T22:30:49.664Z,31.20
2023-04-05T22:33:35.407Z,31.83
2023-04-05T22:36:21.004Z,32.65
2023-04-05T22:39:06.672Z,33.30
2023-04-05T22:41:51.769Z,31.67
2023-04-05T22:44:37.261Z,29.90
2023-04-05T22:47:22.872Z,31.60
2023-04-05T22:50:08.856Z,30.80
2023-04-05T22:52:54.274Z,29.85
2023-04-05T22:55:41.233Z,29.35
2023-04-05T22:58:27.071Z,30.27
2023-04-05T23:01:12.275Z,27.75
2023-04-05T23:03:57.968Z,25.30
2023-04-05T23:06:43.335Z,24.38
2023-04-05T23:09:28.910Z,23.15
2023-04-05T23:12:14.788Z,21.80
2023-04-05T23:15:00.568Z,18.58
2023-04-05T23:17:46.527Z,18.52
2023-04-05T23:20:31.866Z,17.75
2023-04-05T23:23:17.669Z,17.48
2023-04-05T23:26:03.114Z,17.55
2023-04-05T23:28:48.559Z,16.05
2023-04-05T23:31:34.238Z,18.08
2023-04-05T23:34:19.638Z,16.83
2023-04-05T23:37:05.411Z,17.63
2023-04-05T23:39:57.151Z,16.20
2023-04-05T23:42:42.822Z,16.95
2023-04-05T23:45:28.844Z,17.23
2023-04-05T23:48:14.865Z,15.85
2023-04-05T23:51:00.316Z,15.82
2023-04-05T23:53:45.938Z,14.38
2023-04-05T23:56:32.543Z,15.77
2023-04-05T23:59:18.190Z,15.52
